Time;durP1;ratioP1;P1;durP2;ratioP2;P2;SDS_P1;SDS_P2;PMS_P1;PMS_P2;Temp;Humidity;BMP_temperature;BMP_pressure;BME280_temperature;BME280_humidity;BME280_pressure;Samples;Min_cycle;Max_cycle;Signal;HPM_P1;HPM_P2
2020/12/12 00:02:15;;;;;;;27.67;8.70;;;9.80;99.90;;;;;;4917021;29;20500;-73
2020/12/12 00:04:41;;;;;;;30.67;8.82;;;9.80;99.90;;;;;;4916865;29;20044;-73
2020/12/12 00:07:07;;;;;;;27.55;8.15;;;9.70;99.90;;;;;;4916723;29;20047;-71
2020/12/12 00:09:33;;;;;;;30.20;9.18;;;9.60;99.90;;;;;;4916753;29;20031;-71
2020/12/12 00:11:59;;;;;;;30.45;8.73;;;9.60;99.90;;;;;;4916754;29;20028;-70
2020/12/12 00:14:24;;;;;;;30.98;8.70;;;9.70;99.90;;;;;;4916518;29;20024;-68
2020/12/12 00:16:52;;;;;;;32.30;9.25;;;9.70;99.90;;;;;;4916566;29;20032;-66
2020/12/12 00:19:18;;;;;;;24.73;9.05;;;9.70;99.90;;;;;;4917150;29;20080;-67
2020/12/12 00:21:49;;;;;;;21.80;7.57;;;9.70;99.90;;;;;;4916611;29;20032;-66
2020/12/12 00:24:14;;;;;;;24.85;8.35;;;9.80;99.90;;;;;;4916443;29;20028;-69
2020/12/12 00:26:40;;;;;;;27.90;9.20;;;9.80;99.90;;;;;;4916404;29;20046;-69
2020/12/12 00:29:06;;;;;;;32.40;9.52;;;9.80;99.90;;;;;;4916663;29;20058;-71
2020/12/12 00:31:31;;;;;;;30.55;8.77;;;9.80;99.90;;;;;;4916583;29;20040;-68
2020/12/12 00:33:57;;;;;;;27.50;8.80;;;9.80;99.90;;;;;;4916238;29;20183;-69
2020/12/12 00:36:22;;;;;;;30.95;8.93;;;9.80;99.90;;;;;;4897737;29;20025;-70
2020/12/12 00:38:48;;;;;;;30.08;9.13;;;9.90;99.90;;;;;;4897535;29;20115;-72
2020/12/12 00:41:14;;;;;;;29.40;8.85;;;9.90;99.90;;;;;;4880560;29;20494;-71
2020/12/12 00:43:39;;;;;;;29.92;9.35;;;9.90;99.90;;;;;;4908160;29;20035;-71
2020/12/12 00:46:05;;;;;;;29.65;9.27;;;9.90;99.90;;;;;;4915990;29;20092;-68
2020/12/12 00:48:30;;;;;;;29.55;9.20;;;10.00;99.90;;;;;;4916308;29;20079;-68
2020/12/12 00:50:56;;;;;;;33.17;9.70;;;10.00;99.90;;;;;;4925155;29;20138;-70
2020/12/12 00:53:22;;;;;;;30.25;9.32;;;9.90;99.90;;;;;;4923739;29;20084;-70
2020/12/12 00:55:47;;;;;;;31.65;8.95;;;10.00;99.90;;;;;;4916018;29;20740;-69
2020/12/12 00:58:13;;;;;;;30.02;9.25;;;10.00;99.90;;;;;;4916379;29;20119;-69
2020/12/12 01:00:39;;;;;;;32.10;8.77;;;10.00;99.90;;;;;;4915736;29;20036;-68
2020/12/12 01:03:05;;;;;;;32.22;9.35;;;10.00;99.90;;;;;;4924245;29;20077;-67
2020/12/12 01:05:31;;;;;;;27.20;8.48;;;10.10;99.90;;;;;;4934952;29;20079;-71
2020/12/12 01:07:58;;;;;;;30.52;8.73;;;10.10;99.90;;;;;;4924886;29;20414;-69
2020/12/12 01:10:24;;;;;;;31.48;7.82;;;10.10;99.90;;;;;;4915703;29;20028;-68
2020/12/12 01:12:52;;;;;;;33.67;8.52;;;10.20;99.90;;;;;;4921823;29;20111;-72
2020/12/12 01:15:19;;;;;;;39.47;8.18;;;10.20;99.90;;;;;;4934986;29;20115;-68
2020/12/12 01:17:44;;;;;;;26.45;7.43;;;10.20;99.90;;;;;;4934578;29;20042;-69
2020/12/12 01:20:10;;;;;;;37.10;7.47;;;10.20;99.90;;;;;;4934705;29;20123;-72
2020/12/12 01:22:35;;;;;;;39.63;8.30;;;10.20;99.90;;;;;;4929607;29;20032;-69
2020/12/12 01:25:03;;;;;;;30.15;7.15;;;10.20;99.90;;;;;;4915317;29;20032;-68
2020/12/12 01:27:28;;;;;;;31.08;7.45;;;10.20;99.90;;;;;;4920947;29;20106;-69
2020/12/12 01:29:54;;;;;;;32.85;7.13;;;10.20;99.90;;;;;;4933834;29;20115;-71
2020/12/12 01:32:19;;;;;;;25.45;7.00;;;10.20;99.90;;;;;;4934662;29;20528;-70
2020/12/12 01:34:45;;;;;;;29.10;7.22;;;10.10;99.90;;;;;;4929401;29;20508;-70
2020/12/12 01:37:11;;;;;;;31.27;7.65;;;10.10;99.90;;;;;;4923287;29;20039;-67
2020/12/12 01:39:36;;;;;;;27.27;6.70;;;10.00;99.90;;;;;;4934209;29;20086;-69
2020/12/12 01:42:02;;;;;;;29.05;6.22;;;10.00;99.90;;;;;;4934413;29;20032;-68
2020/12/12 01:44:28;;;;;;;30.73;7.13;;;10.00;99.90;;;;;;4934425;29;20028;-71
2020/12/12 01:46:54;;;;;;;27.88;7.10;;;10.00;99.90;;;;;;4925820;29;20438;-71
2020/12/12 01:49:20;;;;;;;33.38;6.70;;;9.90;99.90;;;;;;4915337;29;20481;-70
2020/12/12 01:51:48;;;;;;;32.28;6.85;;;9.90;99.90;;;;;;4915085;29;20127;-67
2020/12/12 01:54:15;;;;;;;24.52;6.38;;;9.90;99.90;;;;;;4915135;29;20028;-71
2020/12/12 01:56:41;;;;;;;24.95;6.38;;;9.90;99.90;;;;;;4914918;29;20068;-69
2020/12/12 01:59:07;;;;;;;26.98;6.32;;;9.90;99.90;;;;;;4914737;29;20036;-67
2020/12/12 02:01:38;;;;;;;30.88;7.35;;;9.80;99.90;;;;;;4914833;29;20035;-67
2020/12/12 02:04:08;;;;;;;28.23;6.40;;;9.80;99.90;;;;;;4915261;29;20479;-71
2020/12/12 02:06:35;;;;;;;27.23;6.40;;;9.80;99.90;;;;;;4915197;29;20191;-71
2020/12/12 02:09:01;;;;;;;30.55;6.53;;;9.70;99.90;;;;;;4915197;29;20051;-71
2020/12/12 02:11:26;;;;;;;29.67;6.90;;;9.70;99.90;;;;;;4915042;29;20032;-69
2020/12/12 02:13:56;;;;;;;32.60;7.30;;;9.70;99.90;;;;;;4914804;29;20032;-70
2020/12/12 02:16:23;;;;;;;25.92;6.60;;;9.70;99.90;;;;;;4914879;29;20601;-70
2020/12/12 02:18:48;;;;;;;31.20;7.07;;;9.70;99.90;;;;;;4915122;29;20036;-71
2020/12/12 02:21:14;;;;;;;28.35;6.90;;;9.70;99.90;;;;;;4914519;29;20028;-68
2020/12/12 02:23:40;;;;;;;31.85;7.95;;;9.70;99.90;;;;;;4914832;29;20477;-67
2020/12/12 02:26:06;;;;;;;28.25;7.10;;;9.60;99.90;;;;;;4914751;29;20036;-66
2020/12/12 02:28:40;;;;;;;32.28;7.57;;;9.60;99.90;;;;;;4915044;29;20111;-67
2020/12/12 02:31:06;;;;;;;26.00;6.03;;;9.60;99.90;;;;;;4914185;29;20072;-67
2020/12/12 02:33:31;;;;;;;28.92;6.45;;;9.60;99.90;;;;;;4914990;29;20047;-69
2020/12/12 02:35:57;;;;;;;27.10;6.47;;;9.60;99.90;;;;;;4914855;29;20044;-72
2020/12/12 02:38:23;;;;;;;28.40;7.18;;;9.50;99.90;;;;;;4915251;29;20469;-67
2020/12/12 02:40:50;;;;;;;23.92;6.10;;;9.60;99.90;;;;;;4916564;29;20032;-69
2020/12/12 02:43:16;;;;;;;27.55;6.68;;;9.50;99.90;;;;;;4918303;29;20024;-72
2020/12/12 02:45:46;;;;;;;29.13;6.43;;;9.50;99.90;;;;;;4917898;29;20366;-71
2020/12/12 02:48:12;;;;;;;24.88;6.43;;;9.50;99.90;;;;;;4918100;29;20495;-72
2020/12/12 02:50:37;;;;;;;23.63;6.32;;;9.50;99.90;;;;;;4918283;29;20127;-72
2020/12/12 02:53:03;;;;;;;25.17;6.78;;;9.50;99.90;;;;;;4918127;29;20130;-69
2020/12/12 02:55:29;;;;;;;23.55;6.35;;;9.50;99.90;;;;;;4918111;29;20024;-68
2020/12/12 02:57:54;;;;;;;24.08;5.75;;;9.50;99.90;;;;;;4917818;29;20076;-68
2020/12/12 03:00:23;;;;;;;18.63;5.57;;;9.50;99.90;;;;;;4917977;29;20031;-69
2020/12/12 03:02:49;;;;;;;16.25;5.30;;;9.40;99.90;;;;;;4918116;29;20028;-69
2020/12/12 03:05:14;;;;;;;20.45;5.20;;;9.40;99.90;;;;;;4918188;29;20099;-72
2020/12/12 03:07:40;;;;;;;14.43;5.22;;;9.40;99.90;;;;;;4918115;29;20036;-68
2020/12/12 03:10:07;;;;;;;19.67;5.72;;;9.40;99.90;;;;;;4918347;29;20505;-72
2020/12/12 03:12:37;;;;;;;17.15;5.25;;;9.40;99.90;;;;;;4917801;29;20032;-71
2020/12/12 03:15:08;;;;;;;15.60;5.15;;;9.40;99.90;;;;;;4898980;29;20046;-68
2020/12/12 03:17:34;;;;;;;10.73;4.57;;;9.40;99.90;;;;;;4899285;29;20124;-69
2020/12/12 03:20:00;;;;;;;11.40;4.28;;;9.40;99.90;;;;;;4898928;29;20035;-70
2020/12/12 03:22:25;;;;;;;14.00;4.82;;;9.30;99.90;;;;;;4899051;29;20033;-70
2020/12/12 03:24:51;;;;;;;11.10;4.43;;;9.30;99.90;;;;;;4899009;29;20491;-71
2020/12/12 03:27:18;;;;;;;7.70;4.10;;;9.30;99.90;;;;;;4898665;29;20403;-70
2020/12/12 03:29:44;;;;;;;8.55;4.38;;;9.30;99.90;;;;;;4917011;29;20033;-71
2020/12/12 03:32:10;;;;;;;10.05;5.10;;;9.30;99.90;;;;;;4916424;29;20034;-71
2020/12/12 03:34:37;;;;;;;9.15;4.75;;;9.30;99.90;;;;;;4917285;29;20024;-69
2020/12/12 03:37:04;;;;;;;9.32;4.93;;;9.30;99.90;;;;;;4917385;29;20489;-70
2020/12/12 03:39:30;;;;;;;13.65;5.35;;;9.30;99.90;;;;;;4917782;29;20032;-72
2020/12/12 03:41:55;;;;;;;12.38;5.30;;;9.30;99.90;;;;;;4917352;29;20040;-72
2020/12/12 03:44:21;;;;;;;12.82;5.65;;;9.30;99.90;;;;;;4917363;29;20040;-72
2020/12/12 03:46:47;;;;;;;12.20;5.53;;;9.30;99.90;;;;;;4917050;29;20028;-71
2020/12/12 03:49:12;;;;;;;16.23;5.60;;;9.30;99.90;;;;;;4917003;29;20036;-71
2020/12/12 03:51:38;;;;;;;13.88;5.60;;;9.30;99.90;;;;;;4915934;29;20072;-71
2020/12/12 03:54:04;;;;;;;11.02;5.70;;;9.30;99.90;;;;;;4917423;29;20027;-72
2020/12/12 03:56:29;;;;;;;14.52;5.50;;;9.20;99.90;;;;;;4917360;29;20032;-71
2020/12/12 03:58:55;;;;;;;11.00;5.60;;;9.20;99.90;;;;;;4917093;29;20469;-70
2020/12/12 04:01:20;;;;;;;14.50;5.55;;;9.20;99.90;;;;;;4917308;29;20028;-70
2020/12/12 04:03:46;;;;;;;14.98;5.95;;;9.30;99.90;;;;;;4917014;29;20081;-70
2020/12/12 04:06:12;;;;;;;20.35;6.78;;;9.20;99.90;;;;;;4917032;29;20040;-71
2020/12/12 04:08:37;;;;;;;17.80;6.38;;;9.30;99.90;;;;;;4917161;29;20382;-70
2020/12/12 04:11:04;;;;;;;14.45;6.78;;;9.30;99.90;;;;;;4916809;29;20036;-67
2020/12/12 04:13:30;;;;;;;12.32;5.70;;;9.40;99.90;;;;;;4916795;29;20100;-72
2020/12/12 04:15:56;;;;;;;16.52;6.43;;;9.40;99.90;;;;;;4916586;29;20039;-69
2020/12/12 04:18:21;;;;;;;12.95;5.63;;;9.50;99.90;;;;;;4916871;29;20025;-68
2020/12/12 04:20:48;;;;;;;16.25;5.95;;;9.40;99.90;;;;;;4916948;29;20040;-73
2020/12/12 04:23:14;;;;;;;14.18;5.82;;;9.40;99.90;;;;;;4917014;29;20027;-72
2020/12/12 04:25:40;;;;;;;16.27;6.10;;;9.40;99.90;;;;;;4916563;29;20036;-73
2020/12/12 04:28:06;;;;;;;14.30;5.47;;;9.50;99.90;;;;;;4916599;29;20037;-71
2020/12/12 04:30:32;;;;;;;12.93;5.43;;;9.40;99.90;;;;;;4916929;29;20024;-72
2020/12/12 04:32:58;;;;;;;12.93;5.78;;;9.50;99.90;;;;;;4915958;29;20500;-69
2020/12/12 04:35:23;;;;;;;15.05;6.25;;;9.50;99.90;;;;;;4916813;29;20103;-72
2020/12/12 04:37:50;;;;;;;14.38;6.15;;;9.50;99.90;;;;;;4916596;29;20032;-72
2020/12/12 04:40:16;;;;;;;14.23;6.43;;;9.50;99.90;;;;;;4916451;29;20822;-72
2020/12/12 04:42:42;;;;;;;14.93;7.00;;;9.50;99.90;;;;;;4915811;29;20107;-71
2020/12/12 04:45:12;;;;;;;14.32;6.85;;;9.50;99.90;;;;;;4916247;29;20028;-72
2020/12/12 04:47:43;;;;;;;16.20;6.65;;;9.50;99.90;;;;;;4915878;29;20043;-71
2020/12/12 04:50:09;;;;;;;18.10;6.45;;;9.50;99.90;;;;;;4916061;29;20068;-74
2020/12/12 04:52:38;;;;;;;13.05;6.50;;;9.60;99.90;;;;;;4916283;29;20036;-73
2020/12/12 04:55:05;;;;;;;17.55;7.20;;;9.60;99.90;;;;;;4916065;29;20123;-74
2020/12/12 04:57:36;;;;;;;16.30;6.78;;;9.60;99.90;;;;;;4916285;29;20024;-72
2020/12/12 05:00:11;;;;;;;14.70;7.88;;;9.60;99.90;;;;;;4915853;29;20099;-69
2020/12/12 05:02:36;;;;;;;14.93;7.38;;;9.60;99.90;;;;;;4915944;29;20107;-71
2020/12/12 05:05:04;;;;;;;13.95;6.95;;;9.60;99.90;;;;;;4915553;29;20207;-72
2020/12/12 05:07:29;;;;;;;16.27;7.47;;;9.60;99.90;;;;;;4916162;29;20123;-72
2020/12/12 05:09:55;;;;;;;17.60;7.45;;;9.70;99.90;;;;;;4915852;29;20112;-71
2020/12/12 05:12:21;;;;;;;16.45;6.97;;;9.70;99.90;;;;;;4915795;29;20052;-70
2020/12/12 05:14:49;;;;;;;13.60;7.18;;;9.70;99.90;;;;;;4915621;29;20158;-69
2020/12/12 05:17:15;;;;;;;16.58;7.97;;;9.70;99.90;;;;;;4915902;29;20028;-70
2020/12/12 05:19:41;;;;;;;13.55;7.13;;;9.70;99.90;;;;;;4916043;29;20032;-69
2020/12/12 05:22:09;;;;;;;16.40;7.45;;;9.70;99.90;;;;;;4914925;29;20043;-70
2020/12/12 05:24:34;;;;;;;14.82;6.75;;;9.70;99.90;;;;;;4915901;29;20035;-71
2020/12/12 05:27:01;;;;;;;14.18;7.40;;;9.70;99.90;;;;;;4915491;29;20028;-71
2020/12/12 05:29:27;;;;;;;16.60;7.20;;;9.70;99.90;;;;;;4915561;29;20481;-70
2020/12/12 05:31:56;;;;;;;13.75;7.55;;;9.70;99.90;;;;;;4915560;29;20448;-71
2020/12/12 05:34:22;;;;;;;15.13;7.93;;;9.80;99.90;;;;;;4915837;29;20032;-71
2020/12/12 05:36:48;;;;;;;17.92;7.40;;;9.80;99.90;;;;;;4915385;29;20041;-70
2020/12/12 05:39:15;;;;;;;20.55;8.38;;;9.80;99.90;;;;;;4915509;29;20020;-71
2020/12/12 05:41:42;;;;;;;19.55;8.43;;;9.80;99.90;;;;;;4915718;29;20392;-72
2020/12/12 05:44:08;;;;;;;18.70;8.63;;;9.80;99.90;;;;;;4915034;29;20243;-65
2020/12/12 05:46:35;;;;;;;15.80;8.38;;;9.90;99.90;;;;;;4915614;29;20378;-72
2020/12/12 05:49:01;;;;;;;19.15;8.90;;;10.00;99.90;;;;;;4914975;29;20016;-72
2020/12/12 05:51:29;;;;;;;17.50;7.97;;;9.90;99.90;;;;;;4928053;29;20110;-69
2020/12/12 05:53:56;;;;;;;20.02;7.75;;;9.90;99.90;;;;;;4934172;29;20055;-71
2020/12/12 05:56:23;;;;;;;20.08;8.98;;;9.90;99.90;;;;;;4934085;29;20055;-71
2020/12/12 05:58:51;;;;;;;19.73;9.23;;;9.90;99.90;;;;;;4934062;29;20034;-71
2020/12/12 06:01:22;;;;;;;19.52;10.32;;;10.00;99.90;;;;;;4932706;29;20042;-71
2020/12/12 06:04:07;;;;;;;19.73;9.65;;;10.00;99.90;;;;;;4920888;29;20040;-65
2020/12/12 06:06:33;;;;;;;22.80;10.20;;;10.00;99.90;;;;;;4915086;29;20370;-72
2020/12/12 06:09:08;;;;;;;18.13;10.10;;;10.00;99.90;;;;;;4915046;29;20032;-72
2020/12/12 06:11:38;;;;;;;18.88;10.18;;;10.00;99.90;;;;;;4914985;29;20036;-69
2020/12/12 06:14:05;;;;;;;15.80;9.48;;;10.00;99.90;;;;;;4915093;29;20454;-72
2020/12/12 06:16:32;;;;;;;17.10;9.63;;;10.10;99.90;;;;;;4922847;29;20122;-72
2020/12/12 06:19:10;;;;;;;14.80;9.27;;;10.10;99.90;;;;;;4928579;29;20028;-72
2020/12/12 06:21:38;;;;;;;16.33;9.68;;;10.10;99.90;;;;;;4918801;29;20028;-72
2020/12/12 06:24:12;;;;;;;17.95;10.00;;;10.10;99.90;;;;;;4918708;29;20433;-72
2020/12/12 06:26:50;;;;;;;;;;;10.10;99.90;;;;;;4919565;29;20048;-72
2020/12/12 06:29:18;;;;;;;20.08;10.82;;;10.20;99.90;;;;;;4918669;29;19914;-72
2020/12/12 06:31:45;;;;;;;22.02;10.98;;;10.20;99.90;;;;;;4927053;29;20024;-70
2020/12/12 06:34:10;;;;;;;25.92;12.90;;;10.20;99.90;;;;;;4937584;29;20090;-72
2020/12/12 06:36:43;;;;;;;25.17;13.30;;;10.20;99.90;;;;;;4937582;29;20115;-71
2020/12/12 06:39:17;;;;;;;25.17;14.38;;;10.20;99.90;;;;;;4937529;29;20031;-68
2020/12/12 06:41:44;;;;;;;26.05;14.30;;;10.20;99.90;;;;;;4937871;29;20032;-72
2020/12/12 06:44:09;;;;;;;23.60;14.13;;;10.30;99.90;;;;;;4937204;29;20495;-69
2020/12/12 06:47:02;;;;;;;27.17;14.52;;;10.20;99.90;;;;;;4927557;29;20040;-71
2020/12/12 06:49:28;;;;;;;27.50;14.80;;;10.30;99.90;;;;;;4914865;29;20111;-69
2020/12/12 06:51:54;;;;;;;26.63;14.98;;;10.30;99.90;;;;;;4918046;29;20131;-71
2020/12/12 06:54:20;;;;;;;27.33;15.30;;;10.30;99.90;;;;;;4918395;29;20031;-70
2020/12/12 06:56:47;;;;;;;27.88;16.17;;;10.40;99.90;;;;;;4918455;29;20021;-71
2020/12/12 06:59:30;;;;;;;26.58;15.98;;;10.40;99.90;;;;;;4918086;29;20032;-72
2020/12/12 07:01:58;;;;;;;30.85;17.17;;;10.40;99.90;;;;;;4918334;29;20024;-72
2020/12/12 07:04:30;;;;;;;36.90;18.25;;;10.50;99.90;;;;;;4918108;29;20131;-71
2020/12/12 07:07:00;;;;;;;32.35;18.60;;;10.40;99.90;;;;;;4901456;29;20032;-67
2020/12/12 07:09:27;;;;;;;32.55;18.00;;;10.50;99.90;;;;;;4918081;29;20024;-71
2020/12/12 07:11:54;;;;;;;32.70;18.00;;;10.50;99.90;;;;;;4918321;29;20361;-71
2020/12/12 07:14:20;;;;;;;27.88;18.63;;;10.40;99.90;;;;;;4917595;29;20025;-69
2020/12/12 07:16:45;;;;;;;35.13;19.50;;;10.50;99.90;;;;;;4917739;29;20504;-70
2020/12/12 07:19:12;;;;;;;27.85;18.35;;;10.50;99.90;;;;;;4918152;29;20028;-71
2020/12/12 07:21:39;;;;;;;29.45;17.85;;;10.50;99.90;;;;;;4917936;29;20052;-71
2020/12/12 07:24:05;;;;;;;32.10;19.05;;;10.50;99.90;;;;;;4918025;29;20032;-72
2020/12/12 07:26:31;;;;;;;32.45;19.92;;;10.50;99.90;;;;;;4916160;29;20100;-70
2020/12/12 07:28:57;;;;;;;36.25;19.83;;;10.50;99.90;;;;;;4917238;29;20039;-72
2020/12/12 07:31:23;;;;;;;33.15;20.90;;;10.50;99.90;;;;;;4917443;29;20028;-71
2020/12/12 07:33:49;;;;;;;35.88;20.95;;;10.60;99.90;;;;;;4917923;29;20028;-72
2020/12/12 07:36:15;;;;;;;36.47;21.73;;;10.50;99.90;;;;;;4917772;29;20037;-69
2020/12/12 07:38:41;;;;;;;35.92;20.85;;;10.50;99.90;;;;;;4917470;29;20040;-69
2020/12/12 07:41:14;;;;;;;34.88;20.33;;;10.50;99.90;;;;;;4917074;29;20024;-68
2020/12/12 07:43:54;;;;;;;36.42;20.73;;;10.60;99.90;;;;;;4917368;29;20029;-72
2020/12/12 07:46:20;;;;;;;38.45;19.88;;;10.60;99.90;;;;;;4917344;29;20043;-68
2020/12/12 07:48:59;;;;;;;32.58;18.45;;;10.60;99.90;;;;;;4917421;29;20032;-68
2020/12/12 07:51:25;;;;;;;35.90;19.08;;;10.60;99.90;;;;;;4917103;29;20048;-71
2020/12/12 07:53:50;;;;;;;35.55;18.98;;;10.60;99.90;;;;;;4917566;29;20036;-72
2020/12/12 07:56:19;;;;;;;32.42;18.90;;;10.60;99.90;;;;;;4917523;29;20028;-73
2020/12/12 07:58:55;;;;;;;39.22;19.10;;;10.60;99.90;;;;;;4916453;29;20024;-73
2020/12/12 08:01:24;;;;;;;32.35;20.77;;;10.60;99.90;;;;;;4917124;29;20135;-72
2020/12/12 08:03:50;;;;;;;46.55;19.73;;;10.60;99.90;;;;;;4916728;29;20058;-75
2020/12/12 08:06:16;;;;;;;35.72;18.25;;;10.60;99.90;;;;;;4916947;29;20477;-75
2020/12/12 08:08:52;;;;;;;62.33;42.80;;;10.60;99.90;;;;;;4916976;29;20032;-70
2020/12/12 08:11:18;;;;;;;72.22;44.65;;;10.70;99.90;;;;;;4913308;29;20485;-73
2020/12/12 08:13:44;;;;;;;54.25;41.55;;;10.70;99.90;;;;;;4916087;29;20091;-72
2020/12/12 08:18:38;;;;;;;37.75;25.23;;;10.70;99.90;;;;;;4915812;29;20105;-74
2020/12/12 08:21:15;;;;;;;59.67;37.67;;;10.70;99.90;;;;;;4915921;29;20028;-75
2020/12/12 08:23:41;;;;;;;42.22;26.70;;;10.70;99.90;;;;;;4916938;29;20541;-81
2020/12/12 08:26:10;;;;;;;36.08;21.30;;;10.20;99.90;;;;;;4916017;29;20231;-75
2020/12/12 08:28:36;;;;;;;56.13;35.22;;;10.00;99.90;;;;;;4916198;29;20024;-75
2020/12/12 08:31:18;;;;;;;37.85;20.10;;;9.80;99.90;;;;;;4916201;29;20507;-80
2020/12/12 08:33:47;;;;;;;43.83;19.95;;;9.80;99.90;;;;;;4916717;29;20107;-80
2020/12/12 08:36:24;;;;;;;37.28;18.90;;;9.80;99.90;;;;;;4915858;29;20032;-72
2020/12/12 08:38:55;;;;;;;58.58;34.75;;;9.80;99.90;;;;;;4916621;29;20040;-77
2020/12/12 08:41:26;;;;;;;97.70;56.65;;;9.70;99.90;;;;;;4916518;29;20032;-72
2020/12/12 08:43:52;;;;;;;36.63;20.83;;;9.80;99.90;;;;;;4916293;29;20574;-74
2020/12/12 08:46:17;;;;;;;67.78;38.38;;;9.70;99.90;;;;;;4916327;29;20126;-70
2020/12/12 08:48:44;;;;;;;32.47;15.93;;;9.70;99.90;;;;;;4916583;29;20031;-79
2020/12/12 08:51:11;;;;;;;34.78;20.92;;;9.80;99.90;;;;;;4916514;29;20408;-86
2020/12/12 08:53:44;;;;;;;33.00;20.45;;;9.80;99.90;;;;;;4921383;29;20486;-86
2020/12/12 08:56:21;;;;;;;35.50;19.75;;;9.90;99.90;;;;;;4938419;29;20042;-87
2020/12/12 08:58:51;;;;;;;45.20;30.10;;;9.80;99.90;;;;;;4939384;29;20100;-91
2020/12/12 09:01:44;;;;;;;33.78;18.30;;;9.80;99.90;;;;;;4938734;29;20448;-85
2020/12/12 09:04:10;;;;;;;31.90;19.63;;;9.70;99.90;;;;;;4939094;29;20096;-71
2020/12/12 09:06:49;;;;;;;34.83;20.42;;;9.80;99.90;;;;;;4937052;29;20040;-81
2020/12/12 09:09:27;;;;;;;45.80;23.73;;;9.80;99.90;;;;;;4937320;29;20482;-72
2020/12/12 09:11:56;;;;;;;36.03;19.90;;;9.80;99.90;;;;;;4936006;29;20031;-70
2020/12/12 09:14:22;;;;;;;39.15;25.70;;;9.80;99.90;;;;;;4938262;29;20055;-87
2020/12/12 09:16:56;;;;;;;38.47;20.30;;;9.80;99.90;;;;;;4922937;29;20055;-85
2020/12/12 09:19:23;;;;;;;48.10;29.20;;;9.80;99.90;;;;;;4939234;29;20084;-73
2020/12/12 09:21:49;;;;;;;46.80;20.25;;;9.90;99.90;;;;;;4922122;29;20036;-78
2020/12/12 09:24:16;;;;;;;35.85;19.55;;;9.90;99.90;;;;;;4920186;29;20038;-87
2020/12/12 09:26:42;;;;;;;45.53;24.80;;;9.90;99.90;;;;;;4903966;29;20457;-88
2020/12/12 09:29:23;;;;;;;44.25;22.20;;;10.00;99.90;;;;;;4920026;29;20028;-87
2020/12/12 09:31:54;;;;;;;47.72;31.52;;;9.80;99.90;;;;;;4918368;29;20037;-83
2020/12/12 09:34:20;;;;;;;38.42;22.05;;;9.90;99.90;;;;;;4917355;29;20031;-75
2020/12/12 09:36:48;;;;;;;185.15;116.20;;;10.00;99.90;;;;;;4922680;29;20384;-82
2020/12/12 09:39:14;;;;;;;102.78;85.93;;;10.00;99.90;;;;;;4925361;29;20103;-85
2020/12/12 09:41:39;;;;;;;79.30;58.00;;;10.00;99.90;;;;;;4916386;29;20028;-88
2020/12/12 09:44:06;;;;;;;36.28;21.42;;;9.90;99.90;;;;;;4915997;29;20028;-82
2020/12/12 09:46:31;;;;;;;46.67;26.70;;;9.90;99.90;;;;;;4934683;29;20036;-83
2020/12/12 09:48:58;;;;;;;36.83;20.55;;;9.90;99.90;;;;;;4934641;29;20031;-81
2020/12/12 09:51:24;;;;;;;70.07;50.08;;;10.10;99.90;;;;;;4933664;29;20095;-83
2020/12/12 09:53:52;;;;;;;51.75;29.48;;;10.10;99.90;;;;;;4934631;29;20027;-77
2020/12/12 09:56:17;;;;;;;44.28;24.50;;;10.00;99.90;;;;;;4917166;29;20404;-84
2020/12/12 09:58:44;;;;;;;39.58;23.02;;;10.00;99.90;;;;;;4912880;29;20084;-75
2020/12/12 10:01:10;;;;;;;58.20;24.58;;;10.00;99.90;;;;;;4914535;29;20032;-85
2020/12/12 10:03:36;;;;;;;44.72;23.10;;;10.00;99.90;;;;;;4915560;29;20047;-73
2020/12/12 10:06:05;;;;;;;53.05;29.83;;;10.10;99.90;;;;;;4927692;29;20495;-80
2020/12/12 10:08:30;;;;;;;40.05;22.70;;;10.10;99.90;;;;;;4934166;29;20027;-77
2020/12/12 10:10:56;;;;;;;52.38;24.85;;;10.10;99.90;;;;;;4926026;29;20099;-79
2020/12/12 10:13:22;;;;;;;43.25;25.55;;;10.10;99.90;;;;;;4914306;29;20054;-81
2020/12/12 10:15:48;;;;;;;56.88;26.30;;;10.10;99.90;;;;;;4908982;29;20031;-71
2020/12/12 10:18:14;;;;;;;55.55;24.98;;;10.10;99.90;;;;;;4914704;29;20048;-81
2020/12/12 10:20:40;;;;;;;49.65;23.75;;;10.10;99.90;;;;;;4914964;29;20537;-74
2020/12/12 10:23:06;;;;;;;45.63;24.70;;;10.20;99.90;;;;;;4915049;29;20028;-69
2020/12/12 10:25:32;;;;;;;55.38;30.05;;;10.20;99.90;;;;;;4914815;29;20493;-77
2020/12/12 10:27:58;;;;;;;53.83;26.67;;;10.20;99.90;;;;;;4927502;29;20044;-79
2020/12/12 10:30:23;;;;;;;51.15;30.88;;;10.40;99.90;;;;;;4919189;29;20027;-72
2020/12/12 10:32:49;;;;;;;53.60;30.85;;;10.30;99.90;;;;;;4918170;29;20039;-83
2020/12/12 10:35:15;;;;;;;64.72;37.85;;;10.30;99.90;;;;;;4934796;29;20143;-81
2020/12/12 10:37:41;;;;;;;71.47;35.67;;;10.30;99.90;;;;;;4919639;29;20473;-82
2020/12/12 10:40:24;;;;;;;55.28;26.92;;;10.40;99.90;;;;;;4914895;29;20027;-79
2020/12/12 10:42:50;;;;;;;53.13;30.13;;;10.30;99.90;;;;;;4932836;29;20211;-82
2020/12/12 10:45:16;;;;;;;48.67;24.25;;;10.40;99.90;;;;;;4925273;29;20040;-79
2020/12/12 10:47:41;;;;;;;50.47;24.77;;;10.30;99.90;;;;;;4914536;29;20063;-78
2020/12/12 10:50:08;;;;;;;54.63;24.10;;;10.40;99.90;;;;;;4914317;29;20043;-74
2020/12/12 10:52:34;;;;;;;48.95;27.85;;;10.40;99.90;;;;;;4914563;29;20025;-74
2020/12/12 10:55:01;;;;;;;50.20;26.73;;;10.40;99.90;;;;;;4914887;29;20028;-78
2020/12/12 10:57:26;;;;;;;47.28;27.60;;;10.30;99.90;;;;;;4914877;29;20454;-74
2020/12/12 10:59:52;;;;;;;58.72;28.60;;;10.30;99.90;;;;;;4914549;29;20063;-72
2020/12/12 11:02:18;;;;;;;54.28;28.27;;;10.30;99.90;;;;;;4916653;29;20063;-74
2020/12/12 11:04:44;;;;;;;67.57;31.23;;;10.40;99.90;;;;;;4918813;29;20061;-77
2020/12/12 11:07:11;;;;;;;61.65;30.13;;;10.40;99.90;;;;;;4918434;29;20095;-83
2020/12/12 11:09:38;;;;;;;65.60;34.00;;;10.50;99.90;;;;;;4918014;29;20470;-84
2020/12/12 11:12:04;;;;;;;66.90;34.35;;;10.40;99.90;;;;;;4918747;29;20036;-91
2020/12/12 11:14:32;;;;;;;62.25;30.50;;;10.40;99.90;;;;;;4918828;29;20112;-80
2020/12/12 11:17:00;;;;;;;58.65;29.60;;;10.30;99.90;;;;;;4917903;29;20406;-79
2020/12/12 11:19:26;;;;;;;54.25;29.55;;;10.30;99.90;;;;;;4917619;29;20032;-69
2020/12/12 11:21:55;;;;;;;59.53;30.70;;;10.30;99.90;;;;;;4918364;29;20043;-78
2020/12/12 11:24:22;;;;;;;50.78;28.40;;;10.20;99.90;;;;;;4918351;29;20114;-82
2020/12/12 11:26:48;;;;;;;63.38;30.25;;;10.30;99.90;;;;;;4917894;29;20048;-76
2020/12/12 11:29:14;;;;;;;65.47;32.20;;;10.30;99.90;;;;;;4917273;29;20024;-77
2020/12/12 11:31:42;;;;;;;70.65;32.30;;;10.20;99.90;;;;;;4917995;29;20028;-81
2020/12/12 11:34:35;;;;;;;68.60;31.25;;;10.20;99.90;;;;;;4918038;29;20032;-71
2020/12/12 11:45:27;;;;;;;;;;;10.20;99.90;;;;;;4859342;29;20032;-76
2020/12/12 11:47:49;;;;;;;70.80;30.52;;;10.20;99.90;;;;;;4843578;29;19912;-70
2020/12/12 11:50:15;;;;;;;62.92;30.48;;;10.30;99.90;;;;;;4841682;29;20102;-65
2020/12/12 11:52:43;;;;;;;76.80;39.30;;;10.20;99.90;;;;;;4846784;29;20102;-70
2020/12/12 11:55:10;;;;;;;68.93;35.00;;;10.20;99.90;;;;;;4847270;29;20410;-74
2020/12/12 11:57:36;;;;;;;69.70;32.95;;;10.30;99.90;;;;;;4847141;29;20534;-75
2020/12/12 12:00:11;;;;;;;68.75;34.22;;;10.30;99.90;;;;;;4852467;29;20041;-72
2020/12/12 12:02:37;;;;;;;75.30;35.65;;;10.30;99.90;;;;;;4858695;29;20166;-75
2020/12/12 12:05:04;;;;;;;69.38;32.95;;;10.20;99.90;;;;;;4854401;29;20129;-70
2020/12/12 12:07:30;;;;;;;80.03;40.45;;;10.20;99.90;;;;;;4858010;29;20041;-71
2020/12/12 12:12:47;;;;;;;74.57;34.97;;;10.30;99.90;;;;;;4836772;29;20081;-71
2020/12/12 12:15:13;;;;;;;72.80;36.13;;;10.30;99.90;;;;;;4847372;29;20068;-74
2020/12/12 12:17:39;;;;;;;80.85;42.97;;;10.30;99.90;;;;;;4846509;29;20025;-71
2020/12/12 12:20:06;;;;;;;81.97;40.60;;;10.30;99.90;;;;;;4902896;29;20047;-72
2020/12/12 12:22:32;;;;;;;76.97;44.97;;;10.30;99.90;;;;;;4916454;29;20114;-70
2020/12/12 12:24:57;;;;;;;93.20;52.97;;;10.40;99.90;;;;;;4916167;29;20057;-71
2020/12/12 12:27:24;;;;;;;85.15;50.47;;;10.40;99.90;;;;;;4916797;29;20032;-71
2020/12/12 12:29:50;;;;;;;75.68;36.20;;;10.50;99.90;;;;;;4915818;29;20032;-71
2020/12/12 12:32:15;;;;;;;62.13;31.92;;;10.40;99.90;;;;;;4916613;29;20389;-70
2020/12/12 12:34:41;;;;;;;66.72;33.60;;;10.60;99.90;;;;;;4916410;29;20024;-73
2020/12/12 12:37:07;;;;;;;59.60;31.77;;;10.50;99.90;;;;;;4916384;29;20028;-74
2020/12/12 12:39:33;;;;;;;70.20;36.40;;;10.30;99.90;;;;;;4916526;29;20663;-73
2020/12/12 12:41:59;;;;;;;65.38;32.83;;;10.30;99.90;;;;;;4915571;29;20034;-71
2020/12/12 12:44:24;;;;;;;62.50;31.88;;;10.30;99.90;;;;;;4915757;29;20481;-69
2020/12/12 12:46:50;;;;;;;60.25;31.70;;;10.30;99.90;;;;;;4915731;29;20055;-71
2020/12/12 12:49:16;;;;;;;67.00;33.72;;;10.30;99.90;;;;;;4915240;29;20039;-68
2020/12/12 12:51:43;;;;;;;70.68;32.60;;;10.40;99.90;;;;;;4915569;29;20048;-69
2020/12/12 12:54:09;;;;;;;77.10;36.70;;;10.40;99.90;;;;;;4914240;29;20604;-70